Time;durP1;ratioP1;P1;durP2;ratioP2;P2;SDS_P1;SDS_P2;PMS_P1;PMS_P2;Temp;Humidity;BMP_temperature;BMP_pressure;BME280_temperature;BME280_humidity;BME280_pressure;Samples;Min_cycle;Max_cycle;Signal;HPM_P1;HPM_P2
2023/11/10 00:00:37;;;;;;;3.10;0.40;;;7.60;99.90;;;;;;5032590;28;20045;-53
2023/11/10 00:03:02;;;;;;;1.07;0.40;;;7.60;99.90;;;;;;5032636;28;20052;-53
2023/11/10 00:05:29;;;;;;;2.47;0.50;;;7.60;99.90;;;;;;5032783;28;20033;-52
2023/11/10 00:07:56;;;;;;;2.33;0.60;;;7.60;99.90;;;;;;5032464;28;20035;-55
2023/11/10 00:10:22;;;;;;;1.50;0.50;;;7.60;99.90;;;;;;5032137;28;20482;-53
2023/11/10 00:12:48;;;;;;;1.60;0.70;;;7.60;99.90;;;;;;5032402;28;20462;-53
2023/11/10 00:15:14;;;;;;;1.07;0.40;;;7.70;99.90;;;;;;5032242;28;20049;-51
2023/11/10 00:17:39;;;;;;;2.47;0.50;;;7.70;99.90;;;;;;5032152;28;20038;-52
2023/11/10 00:20:07;;;;;;;3.63;0.40;;;7.70;99.90;;;;;;5032146;28;20479;-55
2023/11/10 00:22:33;;;;;;;1.50;0.50;;;7.70;99.90;;;;;;5032568;28;20453;-50
2023/11/10 00:25:00;;;;;;;3.63;0.77;;;7.70;99.90;;;;;;5032147;28;20079;-53
2023/11/10 00:27:26;;;;;;;3.80;0.60;;;7.70;99.90;;;;;;5032566;28;20044;-51
2023/11/10 00:29:52;;;;;;;1.83;0.43;;;7.70;99.90;;;;;;5014481;28;20022;-54
2023/11/10 00:32:18;;;;;;;1.40;0.40;;;7.80;99.90;;;;;;5014582;28;20032;-51
2023/11/10 00:34:43;;;;;;;5.20;0.67;;;7.80;99.90;;;;;;5031879;28;20402;-51
2023/11/10 00:37:09;;;;;;;3.00;0.50;;;7.80;99.90;;;;;;5014022;28;20076;-51
2023/11/10 00:39:35;;;;;;;1.63;0.50;;;7.80;99.90;;;;;;5031747;28;20037;-50
2023/11/10 00:42:01;;;;;;;1.33;0.40;;;7.90;99.90;;;;;;5014390;28;20021;-53
2023/11/10 00:44:29;;;;;;;1.00;0.30;;;7.90;99.90;;;;;;5014303;28;20029;-51
2023/11/10 00:46:55;;;;;;;1.50;0.82;;;7.90;99.90;;;;;;5014200;28;20036;-51
2023/11/10 00:49:21;;;;;;;1.47;0.40;;;7.90;99.90;;;;;;5015607;28;20037;-50
2023/11/10 00:51:48;;;;;;;1.43;0.40;;;7.90;99.90;;;;;;5035982;28;20108;-53
2023/11/10 00:54:15;;;;;;;2.00;0.30;;;7.90;99.90;;;;;;5017733;28;20034;-53
2023/11/10 00:56:41;;;;;;;1.30;0.40;;;7.90;99.90;;;;;;5017876;28;20060;-53
2023/11/10 00:59:07;;;;;;;0.97;0.40;;;7.90;99.90;;;;;;5035688;28;20029;-49
2023/11/10 01:01:36;;;;;;;1.40;0.43;;;7.90;99.90;;;;;;5035551;28;20196;-54
2023/11/10 01:04:03;;;;;;;0.63;0.40;;;7.80;99.90;;;;;;5035985;28;20040;-54
2023/11/10 01:06:29;;;;;;;3.03;0.53;;;7.90;99.90;;;;;;5017907;28;20057;-53
2023/11/10 01:08:58;;;;;;;1.10;0.40;;;7.90;99.90;;;;;;5017136;28;20128;-50
2023/11/10 01:11:25;;;;;;;2.78;0.90;;;8.00;99.90;;;;;;5017780;28;20029;-53
2023/11/10 01:13:51;;;;;;;3.17;1.77;;;8.00;99.90;;;;;;5017753;28;20037;-51
2023/11/10 01:16:17;;;;;;;2.53;0.43;;;8.00;99.90;;;;;;5035461;28;20091;-51
2023/11/10 01:18:43;;;;;;;3.40;0.53;;;8.00;99.90;;;;;;5034876;28;20021;-51
2023/11/10 01:21:09;;;;;;;2.73;0.70;;;8.00;99.90;;;;;;5017450;28;20099;-52
2023/11/10 01:23:35;;;;;;;2.00;0.40;;;8.00;99.90;;;;;;5035073;28;20535;-51
2023/11/10 01:26:01;;;;;;;1.83;0.50;;;8.00;99.90;;;;;;5017392;28;20029;-52
2023/11/10 01:28:27;;;;;;;0.53;0.37;;;8.00;99.90;;;;;;5034603;28;20371;-50
2023/11/10 01:30:52;;;;;;;3.93;0.40;;;8.10;99.90;;;;;;5017433;28;20033;-50
2023/11/10 01:33:19;;;;;;;4.07;0.70;;;8.10;99.90;;;;;;5017239;28;20036;-54
2023/11/10 01:35:45;;;;;;;1.07;0.40;;;8.00;99.90;;;;;;5017475;28;20311;-50
2023/11/10 01:38:11;;;;;;;3.73;1.00;;;8.00;99.90;;;;;;5017414;28;20172;-50
2023/11/10 01:40:40;;;;;;;2.17;0.50;;;8.00;99.90;;;;;;5017420;28;20128;-51
2023/11/10 01:43:24;;;;;;;1.03;0.40;;;8.10;99.90;;;;;;5017111;28;20040;-53
2023/11/10 01:45:50;;;;;;;2.03;0.80;;;8.10;99.90;;;;;;5034797;28;20029;-51
2023/11/10 01:48:16;;;;;;;2.23;0.47;;;8.20;99.90;;;;;;5016368;28;20040;-53
2023/11/10 01:50:42;;;;;;;2.30;0.57;;;8.20;99.90;;;;;;5016766;28;20080;-54
2023/11/10 01:53:13;;;;;;;1.27;0.33;;;8.20;99.90;;;;;;5016647;28;20037;-50
2023/11/10 01:55:41;;;;;;;3.80;0.70;;;8.20;99.90;;;;;;5016825;28;20029;-55
2023/11/10 01:58:08;;;;;;;1.27;0.50;;;8.20;99.90;;;;;;5016527;28;20025;-55
2023/11/10 02:00:34;;;;;;;1.50;0.43;;;8.20;99.90;;;;;;5016051;28;20494;-50
2023/11/10 02:03:07;;;;;;;0.70;0.47;;;8.20;99.90;;;;;;5016548;28;20044;-51
2023/11/10 02:05:33;;;;;;;1.97;0.50;;;8.10;99.90;;;;;;5034389;28;20033;-53
2023/11/10 02:08:02;;;;;;;1.43;0.50;;;8.10;99.90;;;;;;5034048;28;20052;-54
2023/11/10 02:10:28;;;;;;;3.13;0.45;;;8.20;99.90;;;;;;5016196;28;20033;-54
2023/11/10 02:12:56;;;;;;;0.73;0.23;;;8.10;99.90;;;;;;5034466;28;20099;-52
2023/11/10 02:15:23;;;;;;;1.70;0.63;;;8.20;99.90;;;;;;5016454;28;20080;-53
2023/11/10 02:17:49;;;;;;;2.83;0.60;;;8.20;99.90;;;;;;5016502;28;20037;-54
2023/11/10 02:20:15;;;;;;;1.97;0.90;;;8.30;99.90;;;;;;5016576;28;20487;-52
2023/11/10 02:22:45;;;;;;;1.90;0.50;;;8.30;99.90;;;;;;5016479;28;20030;-52
2023/11/10 02:25:15;;;;;;;3.07;0.60;;;8.30;99.90;;;;;;5016596;28;20029;-52
2023/11/10 02:27:41;;;;;;;4.53;0.57;;;8.30;99.90;;;;;;5034001;28;20033;-54
2023/11/10 02:30:07;;;;;;;1.93;0.60;;;8.30;99.90;;;;;;5033593;28;20111;-55
2023/11/10 02:32:33;;;;;;;7.00;0.90;;;8.30;99.90;;;;;;5034003;28;20017;-52
2023/11/10 02:34:59;;;;;;;0.90;0.63;;;8.30;99.90;;;;;;5034181;28;20117;-52
2023/11/10 02:37:25;;;;;;;2.50;0.50;;;8.30;99.90;;;;;;5015918;28;20025;-55
2023/11/10 02:39:51;;;;;;;1.03;0.30;;;8.30;99.90;;;;;;5033823;28;20022;-55
2023/11/10 02:42:16;;;;;;;3.17;0.70;;;8.30;99.90;;;;;;5016092;28;20033;-50
2023/11/10 02:44:42;;;;;;;0.87;0.40;;;8.30;99.90;;;;;;5016029;28;20040;-51
2023/11/10 02:47:08;;;;;;;2.37;0.57;;;8.30;99.90;;;;;;5033261;28;20237;-54
2023/11/10 02:49:34;;;;;;;2.23;0.57;;;8.30;99.90;;;;;;5015692;28;20402;-54
2023/11/10 02:52:00;;;;;;;1.13;0.40;;;8.30;99.90;;;;;;5016426;28;20037;-54
2023/11/10 02:54:25;;;;;;;4.10;0.50;;;8.40;99.90;;;;;;5034022;28;20049;-55
2023/11/10 02:56:51;;;;;;;2.37;0.67;;;8.40;99.90;;;;;;5034336;28;20037;-54
2023/11/10 02:59:17;;;;;;;3.03;0.70;;;8.30;99.90;;;;;;5015978;28;20037;-55
2023/11/10 03:01:42;;;;;;;1.30;0.60;;;8.30;99.90;;;;;;5016085;28;20068;-55
2023/11/10 03:04:09;;;;;;;2.03;0.40;;;8.30;99.90;;;;;;5033699;28;20033;-55
2023/11/10 03:06:34;;;;;;;2.63;0.57;;;8.30;99.90;;;;;;5015830;28;20044;-55
2023/11/10 03:09:01;;;;;;;1.53;0.67;;;8.30;99.90;;;;;;5015089;28;20037;-52
2023/11/10 03:11:27;;;;;;;2.60;0.70;;;8.30;99.90;;;;;;5033710;28;20060;-55
2023/11/10 03:13:54;;;;;;;2.10;0.50;;;8.20;99.90;;;;;;5016089;28;20041;-54
2023/11/10 03:16:22;;;;;;;2.97;0.63;;;8.20;99.90;;;;;;5033802;28;20029;-55
2023/11/10 03:18:52;;;;;;;1.47;0.60;;;8.30;99.90;;;;;;5015375;28;20082;-54
2023/11/10 03:21:19;;;;;;;0.63;0.40;;;8.30;99.90;;;;;;5015205;28;20037;-51
2023/11/10 03:23:47;;;;;;;1.83;0.50;;;8.30;99.90;;;;;;5015421;28;20036;-55
2023/11/10 03:26:13;;;;;;;2.08;0.60;;;8.30;99.90;;;;;;5015117;28;20033;-55
2023/11/10 03:28:39;;;;;;;1.67;0.60;;;8.30;99.90;;;;;;5032348;28;20036;-54
2023/11/10 03:31:08;;;;;;;8.40;0.77;;;8.30;99.90;;;;;;5032739;28;20366;-53
2023/11/10 03:33:34;;;;;;;3.90;0.70;;;8.30;99.90;;;;;;5015087;28;20091;-53
2023/11/10 03:36:01;;;;;;;1.43;0.60;;;8.30;99.90;;;;;;5032846;28;20053;-54
2023/11/10 03:38:26;;;;;;;4.07;0.70;;;8.30;99.90;;;;;;5032359;28;20237;-53
2023/11/10 03:40:53;;;;;;;2.10;0.60;;;8.40;99.90;;;;;;4998297;28;20037;-55
2023/11/10 03:43:19;;;;;;;2.23;0.33;;;8.40;99.90;;;;;;5032959;28;20037;-55
2023/11/10 03:45:45;;;;;;;2.93;0.73;;;8.40;99.90;;;;;;5033185;28;20034;-50
2023/11/10 03:48:11;;;;;;;0.93;0.30;;;8.40;99.90;;;;;;5032126;28;20060;-55
2023/11/10 03:50:37;;;;;;;1.57;0.70;;;8.40;99.90;;;;;;5032580;28;20506;-52
2023/11/10 03:53:02;;;;;;;1.27;0.47;;;8.40;99.90;;;;;;5015362;28;20075;-54
2023/11/10 03:55:28;;;;;;;5.57;0.70;;;8.40;99.90;;;;;;5032708;28;20065;-49
2023/11/10 03:57:54;;;;;;;1.80;0.50;;;8.40;99.90;;;;;;5032826;28;20109;-54
2023/11/10 04:00:20;;;;;;;2.70;0.60;;;8.50;99.90;;;;;;5032401;28;20057;-54
2023/11/10 04:02:45;;;;;;;4.70;0.80;;;8.50;99.90;;;;;;5032653;28;20479;-55
2023/11/10 04:05:11;;;;;;;2.47;0.53;;;8.50;99.90;;;;;;5032851;28;20036;-52
2023/11/10 04:07:37;;;;;;;3.07;0.63;;;8.50;99.90;;;;;;5032341;28;20033;-53
2023/11/10 04:10:03;;;;;;;2.83;0.57;;;8.40;99.90;;;;;;5032165;28;20056;-51
2023/11/10 04:12:29;;;;;;;2.87;0.60;;;8.50;99.90;;;;;;5032557;28;20029;-55
2023/11/10 04:14:55;;;;;;;3.43;0.50;;;8.50;99.90;;;;;;5033245;28;20044;-55
2023/11/10 04:17:21;;;;;;;2.70;0.50;;;8.50;99.90;;;;;;5032644;28;20482;-53
2023/11/10 04:19:47;;;;;;;2.40;0.50;;;8.50;99.90;;;;;;5032379;28;20115;-52
2023/11/10 04:22:13;;;;;;;2.83;0.70;;;8.50;99.90;;;;;;5032496;28;20540;-53
2023/11/10 04:24:39;;;;;;;3.27;0.57;;;8.50;99.90;;;;;;5031946;28;20107;-55
2023/11/10 04:27:05;;;;;;;1.13;0.60;;;8.50;99.90;;;;;;5032396;28;20112;-52
2023/11/10 04:29:30;;;;;;;1.07;0.57;;;8.50;99.90;;;;;;5031526;28;20065;-52
2023/11/10 04:31:56;;;;;;;0.63;0.53;;;8.50;99.90;;;;;;5032418;28;20044;-54
2023/11/10 04:34:22;;;;;;;7.17;2.40;;;8.50;99.90;;;;;;5032205;28;20152;-54
2023/11/10 04:36:47;;;;;;;8.70;0.87;;;8.60;99.90;;;;;;5032028;28;20037;-53
2023/11/10 04:39:13;;;;;;;4.03;0.67;;;8.60;99.90;;;;;;5031703;28;20154;-52
2023/11/10 04:41:39;;;;;;;2.87;0.67;;;8.60;99.90;;;;;;5032111;28;20037;-55
2023/11/10 04:44:08;;;;;;;2.37;0.80;;;8.50;99.90;;;;;;5032266;28;20032;-55
2023/11/10 04:46:39;;;;;;;1.20;0.52;;;8.50;99.90;;;;;;5032506;28;20025;-55
2023/11/10 04:49:05;;;;;;;5.10;0.80;;;8.50;99.90;;;;;;5031990;28;20029;-53
2023/11/10 04:51:31;;;;;;;3.40;0.70;;;8.50;99.90;;;;;;5032315;28;20037;-55
2023/11/10 04:53:57;;;;;;;1.67;0.60;;;8.50;99.90;;;;;;5032044;28;20037;-53
2023/11/10 04:56:23;;;;;;;4.43;0.53;;;8.50;99.90;;;;;;5032235;28;20128;-50
2023/11/10 04:58:48;;;;;;;3.37;0.97;;;8.50;99.90;;;;;;5031578;28;20028;-51
2023/11/10 05:01:14;;;;;;;2.17;0.60;;;8.50;99.90;;;;;;5031993;28;20037;-52
2023/11/10 05:03:41;;;;;;;3.23;0.60;;;8.50;99.90;;;;;;5031801;28;20034;-54
2023/11/10 05:06:08;;;;;;;4.13;0.70;;;8.50;99.90;;;;;;5031834;28;20494;-52
2023/11/10 05:08:33;;;;;;;0.80;0.50;;;8.50;99.90;;;;;;5031688;28;20435;-55
2023/11/10 05:10:59;;;;;;;1.80;0.60;;;8.50;99.90;;;;;;5031869;28;20030;-55
2023/11/10 05:13:25;;;;;;;4.20;1.10;;;8.50;99.90;;;;;;5031747;28;20056;-51
2023/11/10 05:15:51;;;;;;;2.67;0.67;;;8.50;99.90;;;;;;5031860;28;20033;-52
2023/11/10 05:18:16;;;;;;;2.30;0.70;;;8.50;99.90;;;;;;5031638;28;20041;-51
2023/11/10 05:20:42;;;;;;;1.60;0.70;;;8.50;99.90;;;;;;5031607;28;20386;-54
2023/11/10 05:23:08;;;;;;;4.23;1.30;;;8.60;99.90;;;;;;5031495;28;20060;-51
2023/11/10 05:25:33;;;;;;;4.03;0.70;;;8.60;99.90;;;;;;5031594;28;20033;-52
2023/11/10 05:27:59;;;;;;;2.50;0.70;;;8.60;99.90;;;;;;5013577;28;20037;-55
2023/11/10 05:30:25;;;;;;;2.63;0.73;;;8.50;99.90;;;;;;5031529;28;20036;-53
2023/11/10 05:32:50;;;;;;;4.57;0.67;;;8.50;99.90;;;;;;5031488;28;20036;-55
2023/11/10 05:35:16;;;;;;;0.70;0.50;;;8.50;99.90;;;;;;5031457;28;20033;-54
2023/11/10 05:37:42;;;;;;;3.30;0.77;;;8.50;99.90;;;;;;5034706;28;20132;-55
2023/11/10 05:40:11;;;;;;;2.87;0.70;;;8.50;99.90;;;;;;5034743;28;20512;-53
2023/11/10 05:42:36;;;;;;;2.38;0.70;;;8.50;99.90;;;;;;5035066;28;20029;-52
2023/11/10 05:45:03;;;;;;;1.80;0.80;;;8.50;99.90;;;;;;5035100;28;20041;-51
2023/11/10 05:47:28;;;;;;;3.33;0.90;;;8.50;99.90;;;;;;5034544;28;20091;-51
2023/11/10 05:49:54;;;;;;;5.07;1.20;;;8.60;99.90;;;;;;5034182;28;20029;-53
2023/11/10 05:52:20;;;;;;;3.23;0.87;;;8.60;99.90;;;;;;5035189;28;20033;-54
2023/11/10 05:54:45;;;;;;;2.20;1.10;;;8.60;99.90;;;;;;5017220;28;20078;-53
2023/11/10 05:57:13;;;;;;;2.90;0.70;;;8.60;99.90;;;;;;5035086;28;20029;-54
2023/11/10 05:59:38;;;;;;;3.60;0.77;;;8.60;99.90;;;;;;5034247;28;20056;-55
2023/11/10 06:02:04;;;;;;;1.37;0.70;;;8.60;99.90;;;;;;5016809;28;20486;-51
2023/11/10 06:04:30;;;;;;;7.70;0.97;;;8.60;99.90;;;;;;5034733;28;20037;-49
2023/11/10 06:06:56;;;;;;;1.43;0.50;;;8.60;99.90;;;;;;5034360;28;20029;-53
2023/11/10 06:09:22;;;;;;;3.83;0.70;;;8.60;99.90;;;;;;5033967;28;20044;-51
2023/11/10 06:11:49;;;;;;;3.93;0.50;;;8.60;99.90;;;;;;5034335;28;20037;-52
2023/11/10 06:14:17;;;;;;;4.97;0.80;;;8.60;99.90;;;;;;5016785;28;20053;-52
2023/11/10 06:16:44;;;;;;;0.93;0.60;;;8.60;99.90;;;;;;5034577;28;20057;-55
2023/11/10 06:19:10;;;;;;;4.07;1.10;;;8.60;99.90;;;;;;5034351;28;20475;-52
2023/11/10 06:21:36;;;;;;;2.43;0.50;;;8.60;99.90;;;;;;5034384;28;20052;-54
2023/11/10 06:24:03;;;;;;;2.73;0.90;;;8.60;99.90;;;;;;5034689;28;20030;-55
2023/11/10 06:26:30;;;;;;;1.23;0.60;;;8.50;99.90;;;;;;5033990;28;20461;-55
2023/11/10 06:28:56;;;;;;;2.67;0.80;;;8.50;99.90;;;;;;5033457;28;20029;-54
2023/11/10 06:31:23;;;;;;;2.73;0.70;;;8.50;99.90;;;;;;5034455;28;20038;-50
2023/11/10 06:33:49;;;;;;;2.07;0.70;;;8.60;99.90;;;;;;5033892;28;20045;-55
2023/11/10 06:36:16;;;;;;;3.33;0.80;;;8.60;99.90;;;;;;5034246;28;20038;-54
2023/11/10 06:38:43;;;;;;;1.00;0.50;;;8.50;99.90;;;;;;5034163;28;20112;-55
2023/11/10 06:41:10;;;;;;;1.60;0.50;;;8.50;99.90;;;;;;5034355;28;20033;-53
2023/11/10 06:43:40;;;;;;;5.73;0.93;;;8.50;99.90;;;;;;5034153;28;20037;-55
2023/11/10 06:46:06;;;;;;;2.77;1.40;;;8.50;99.90;;;;;;5034006;28;20041;-53
2023/11/10 06:48:32;;;;;;;4.10;0.97;;;8.50;99.90;;;;;;5033177;28;20132;-50
2023/11/10 06:50:57;;;;;;;3.60;0.90;;;8.50;99.90;;;;;;5033780;28;20502;-50
2023/11/10 06:53:23;;;;;;;3.33;0.93;;;8.50;99.90;;;;;;5034022;28;20125;-54
2023/11/10 06:55:49;;;;;;;3.03;0.70;;;8.50;99.90;;;;;;5034132;28;20025;-52
2023/11/10 06:58:15;;;;;;;2.00;0.50;;;8.50;99.90;;;;;;5033922;28;20116;-54
2023/11/10 07:00:41;;;;;;;2.43;0.63;;;8.50;99.90;;;;;;5033271;28;20037;-54
2023/11/10 07:03:13;;;;;;;0.83;0.43;;;8.50;99.90;;;;;;5033329;28;20094;-53
2023/11/10 07:05:39;;;;;;;1.43;0.53;;;8.50;99.90;;;;;;5033341;28;20057;-51
2023/11/10 07:08:09;;;;;;;3.93;0.70;;;8.50;99.90;;;;;;5015286;28;20045;-50
2023/11/10 07:10:43;;;;;;;4.27;0.90;;;8.50;99.90;;;;;;5033656;28;20045;-52
2023/11/10 07:13:09;;;;;;;3.13;0.93;;;8.50;99.90;;;;;;5033291;28;20060;-53
2023/11/10 07:15:34;;;;;;;1.60;0.63;;;8.50;99.90;;;;;;5033447;28;20060;-54
2023/11/10 07:18:00;;;;;;;1.03;0.50;;;8.50;99.90;;;;;;5032901;28;20429;-49
2023/11/10 07:20:28;;;;;;;1.67;0.70;;;8.50;99.90;;;;;;5033517;28;20036;-52
2023/11/10 07:22:54;;;;;;;5.15;1.92;;;8.50;99.90;;;;;;5033215;28;20515;-54
2023/11/10 07:25:20;;;;;;;3.27;0.67;;;8.50;99.90;;;;;;5032967;28;20026;-54
2023/11/10 07:27:46;;;;;;;3.53;0.60;;;8.50;99.90;;;;;;5032389;28;20034;-51
2023/11/10 07:30:11;;;;;;;1.10;0.57;;;8.50;99.90;;;;;;5032658;28;20048;-52
2023/11/10 07:32:37;;;;;;;1.13;0.73;;;8.50;99.90;;;;;;5015306;28;20040;-50
2023/11/10 07:35:06;;;;;;;3.90;0.77;;;8.60;99.90;;;;;;5032768;28;20032;-52
2023/11/10 07:37:35;;;;;;;;;;;8.60;99.90;;;;;;5033119;28;20030;-55
2023/11/10 07:40:07;;;;;;;2.43;0.53;;;8.60;99.90;;;;;;5032460;28;19909;-50
2023/11/10 07:42:33;;;;;;;2.77;0.60;;;8.60;99.90;;;;;;5032659;28;20045;-55
2023/11/10 07:44:58;;;;;;;2.93;0.80;;;8.60;99.90;;;;;;5032519;28;20033;-55
2023/11/10 07:47:24;;;;;;;1.90;0.63;;;8.60;99.90;;;;;;5032181;28;20078;-51
2023/11/10 07:49:49;;;;;;;2.47;0.80;;;8.50;99.90;;;;;;5032429;28;20026;-53
2023/11/10 07:52:17;;;;;;;4.63;0.60;;;8.60;99.90;;;;;;5032328;28;20142;-54
2023/11/10 07:54:43;;;;;;;1.80;0.53;;;8.60;99.90;;;;;;5032692;28;20029;-51
2023/11/10 07:57:09;;;;;;;3.20;0.50;;;8.70;99.90;;;;;;5032202;28;20241;-51
2023/11/10 07:59:36;;;;;;;2.83;0.67;;;8.70;99.90;;;;;;5013828;28;20108;-53
2023/11/10 08:02:02;;;;;;;3.00;0.47;;;8.70;99.90;;;;;;5032405;28;20057;-51
2023/11/10 08:04:28;;;;;;;1.60;0.60;;;8.70;99.90;;;;;;5032826;28;20122;-52
2023/11/10 08:06:54;;;;;;;2.43;0.83;;;8.70;99.90;;;;;;5032151;28;20029;-50
2023/11/10 08:09:22;;;;;;;2.13;0.60;;;8.80;99.90;;;;;;5032013;28;20141;-53
2023/11/10 08:11:48;;;;;;;2.67;0.60;;;8.80;99.90;;;;;;5032460;28;20096;-54
2023/11/10 08:14:13;;;;;;;2.80;0.60;;;8.90;99.90;;;;;;5031954;28;20029;-54
2023/11/10 08:16:40;;;;;;;2.57;0.60;;;9.10;99.90;;;;;;5031927;28;20033;-54
2023/11/10 08:19:07;;;;;;;0.70;0.50;;;9.10;99.90;;;;;;5031489;28;20033;-50
2023/11/10 08:21:33;;;;;;;3.93;0.40;;;9.30;99.90;;;;;;5032548;28;20367;-51
2023/11/10 08:23:58;;;;;;;1.80;0.60;;;9.30;99.90;;;;;;5032076;28;20096;-50
2023/11/10 08:26:24;;;;;;;0.87;0.27;;;9.40;99.90;;;;;;5032265;28;20033;-50
2023/11/10 08:28:50;;;;;;;2.93;0.63;;;9.50;99.90;;;;;;5031533;28;20030;-53
2023/11/10 08:31:15;;;;;;;2.53;0.63;;;9.50;99.90;;;;;;5031899;28;20076;-54
2023/11/10 08:33:41;;;;;;;3.70;0.50;;;9.60;99.90;;;;;;5031891;28;20030;-49
2023/11/10 08:36:07;;;;;;;1.23;0.40;;;9.60;99.90;;;;;;5031724;28;20048;-53
2023/11/10 08:38:32;;;;;;;0.97;0.43;;;9.70;99.90;;;;;;5031439;28;20113;-52
2023/11/10 08:40:59;;;;;;;3.13;0.67;;;9.80;99.90;;;;;;5031878;28;20025;-52
2023/11/10 08:43:26;;;;;;;1.90;0.40;;;9.80;99.90;;;;;;5032011;28;20029;-53
2023/11/10 08:45:51;;;;;;;1.23;0.60;;;10.00;99.90;;;;;;5031836;28;20029;-51
2023/11/10 08:48:17;;;;;;;3.87;0.70;;;10.00;99.90;;;;;;5031509;28;20029;-50
2023/11/10 08:50:42;;;;;;;1.33;0.50;;;10.10;99.90;;;;;;5031625;28;20277;-50
2023/11/10 08:53:09;;;;;;;1.23;0.40;;;10.20;99.90;;;;;;5031564;28;20022;-55
2023/11/10 08:55:37;;;;;;;3.00;0.53;;;10.30;99.90;;;;;;5031588;28;20052;-50
2023/11/10 08:58:03;;;;;;;2.35;0.77;;;10.40;99.90;;;;;;5031185;28;20088;-50
2023/11/10 09:00:29;;;;;;;3.87;0.80;;;10.60;99.90;;;;;;5031772;28;20028;-52
2023/11/10 09:02:56;;;;;;;2.47;0.30;;;10.80;99.90;;;;;;5031621;28;20112;-51
2023/11/10 09:05:22;;;;;;;5.50;0.87;;;10.90;99.90;;;;;;5031438;28;20034;-51
2023/11/10 09:07:48;;;;;;;1.80;0.70;;;11.00;99.90;;;;;;5031073;28;20043;-53
2023/11/10 09:10:14;;;;;;;1.03;0.47;;;11.30;99.90;;;;;;5032689;28;20033;-50
2023/11/10 09:12:45;;;;;;;1.83;0.70;;;11.70;99.90;;;;;;5035626;28;20125;-52
2023/11/10 09:15:11;;;;;;;2.77;0.60;;;11.90;99.90;;;;;;5035675;28;20033;-51
2023/11/10 09:17:38;;;;;;;2.10;0.80;;;12.20;99.90;;;;;;5034937;28;20033;-52
2023/11/10 09:20:06;;;;;;;4.50;0.70;;;12.60;99.90;;;;;;5034872;28;20018;-52
2023/11/10 09:22:35;;;;;;;1.10;0.50;;;13.00;99.90;;;;;;5035017;28;20025;-52
2023/11/10 09:25:01;;;;;;;4.97;1.00;;;13.40;99.90;;;;;;5034995;28;20037;-53
2023/11/10 09:27:27;;;;;;;3.17;0.93;;;13.60;99.90;;;;;;5034582;28;20048;-51
2023/11/10 09:29:53;;;;;;;2.88;0.70;;;13.60;99.90;;;;;;5034316;28;20037;-52
2023/11/10 09:32:19;;;;;;;4.50;0.80;;;13.50;99.90;;;;;;5034405;28;20294;-50
2023/11/10 09:34:45;;;;;;;1.88;0.80;;;13.30;99.90;;;;;;5034618;28;20036;-53
2023/11/10 09:37:11;;;;;;;3.47;0.80;;;13.10;99.90;;;;;;5035647;28;20108;-54
2023/11/10 09:39:37;;;;;;;2.08;0.60;;;13.10;99.90;;;;;;5035045;28;20120;-53
2023/11/10 09:42:08;;;;;;;3.38;0.57;;;12.90;99.90;;;;;;5034995;28;20098;-54
2023/11/10 09:44:40;;;;;;;2.40;0.85;;;12.70;99.90;;;;;;5035039;28;20030;-53
2023/11/10 09:47:08;;;;;;;2.25;0.50;;;12.30;99.90;;;;;;5016926;28;20345;-51
2023/11/10 09:49:35;;;;;;;3.90;0.60;;;11.90;99.90;;;;;;5034795;28;20390;-54
2023/11/10 09:52:02;;;;;;;1.87;0.57;;;11.50;99.90;;;;;;5034857;28;20033;-53
2023/11/10 09:54:31;;;;;;;6.90;1.33;;;11.20;99.90;;;;;;5017148;28;20029;-53
2023/11/10 09:56:58;;;;;;;5.35;0.50;;;10.90;99.90;;;;;;5034413;28;20065;-53
2023/11/10 09:59:27;;;;;;;3.87;0.80;;;10.80;99.90;;;;;;5034544;28;20086;-56
2023/11/10 10:01:53;;;;;;;;;;;10.60;99.90;;;;;;5035631;28;20029;-52
2023/11/10 10:04:19;;;;;;;2.83;0.73;;;10.50;99.90;;;;;;5034375;28;20265;-54
2023/11/10 10:06:50;;;;;;;3.33;1.00;;;10.50;99.90;;;;;;5034602;28;20402;-54
2023/11/10 10:09:16;;;;;;;2.53;0.50;;;10.40;99.90;;;;;;5034373;28;20032;-54
2023/11/10 10:11:42;;;;;;;3.20;0.60;;;10.30;99.90;;;;;;5034746;28;20470;-53
2023/11/10 10:14:08;;;;;;;6.50;1.00;;;10.30;99.90;;;;;;5034454;28;20044;-53
2023/11/10 10:16:33;;;;;;;4.83;0.87;;;10.40;99.90;;;;;;5033976;28;20534;-55
2023/11/10 10:19:01;;;;;;;5.33;0.80;;;10.40;99.90;;;;;;5034160;28;20032;-53
2023/11/10 10:21:27;;;;;;;7.47;1.03;;;10.40;99.90;;;;;;5033731;28;20041;-53
2023/11/10 10:23:53;;;;;;;3.90;0.53;;;10.50;99.90;;;;;;5034223;28;20041;-52
2023/11/10 10:26:20;;;;;;;2.83;0.70;;;10.40;99.90;;;;;;5016162;28;20386;-54
2023/11/10 10:28:46;;;;;;;2.40;0.30;;;10.40;99.90;;;;;;5033710;28;20374;-50
2023/11/10 10:31:14;;;;;;;7.20;1.93;;;10.40;99.90;;;;;;5033870;28;20029;-52
2023/11/10 10:33:39;;;;;;;21.27;8.07;;;10.40;99.90;;;;;;5034031;28;20033;-51
2023/11/10 10:36:06;;;;;;;5.07;1.20;;;10.40;99.90;;;;;;5034140;28;20034;-55
2023/11/10 10:38:33;;;;;;;2.87;0.67;;;10.50;99.90;;;;;;5033179;28;20041;-54
2023/11/10 10:41:02;;;;;;;3.43;0.60;;;10.50;99.90;;;;;;5034451;28;20033;-52
2023/11/10 10:43:28;;;;;;;3.53;0.57;;;10.40;99.90;;;;;;5033967;28;20041;-55
2023/11/10 10:45:55;;;;;;;1.53;0.50;;;10.40;99.90;;;;;;5034277;28;20042;-55
2023/11/10 10:48:21;;;;;;;2.40;0.50;;;10.40;99.90;;;;;;5033675;28;20090;-54
2023/11/10 10:50:48;;;;;;;4.97;0.60;;;10.50;99.90;;;;;;5033763;28;20120;-53
2023/11/10 10:53:18;;;;;;;3.77;0.57;;;10.50;99.90;;;;;;5033768;28;20502;-53
2023/11/10 10:55:50;;;;;;;3.27;0.70;;;10.50;99.90;;;;;;5034328;28;20027;-54
2023/11/10 10:58:19;;;;;;;2.50;0.67;;;10.40;99.90;;;;;;5033438;28;20462;-55
2023/11/10 11:00:45;;;;;;;3.95;0.77;;;10.40;99.90;;;;;;5033564;28;20108;-55
2023/11/10 11:03:16;;;;;;;6.90;0.90;;;10.40;99.90;;;;;;5033744;28;20529;-55
2023/11/10 11:05:52;;;;;;;5.67;0.70;;;10.40;99.90;;;;;;5033654;28;20060;-54
2023/11/10 11:08:28;;;;;;;4.33;0.77;;;10.40;99.90;;;;;;5033289;28;20038;-53
2023/11/10 11:11:36;;;;;;;6.93;0.70;;;10.40;99.90;;;;;;5033489;28;20052;-51
2023/11/10 11:14:17;;;;;;;2.40;0.67;;;10.30;99.90;;;;;;5033175;28;20478;-51
2023/11/10 11:17:18;;;;;;;5.67;1.43;;;10.30;99.90;;;;;;5033437;28;20021;-54
2023/11/10 11:19:44;;;;;;;2.77;0.77;;;10.10;99.90;;;;;;5033177;28;20070;-55
2023/11/10 11:22:10;;;;;;;3.87;0.67;;;10.00;99.90;;;;;;5033213;28;20037;-54
2023/11/10 11:24:36;;;;;;;3.53;0.50;;;9.90;99.90;;;;;;5033209;28;20501;-54
2023/11/10 11:27:03;;;;;;;3.27;0.70;;;9.80;99.90;;;;;;5032770;28;20026;-52
2023/11/10 11:29:39;;;;;;;2.03;0.73;;;9.70;99.90;;;;;;5032724;28;20038;-50
2023/11/10 11:32:08;;;;;;;2.90;0.70;;;9.70;99.90;;;;;;5032807;28;20040;-52
2023/11/10 11:34:36;;;;;;;3.72;0.50;;;9.70;99.90;;;;;;5032735;28;20116;-55
2023/11/10 11:37:04;;;;;;;3.08;1.08;;;9.70;99.90;;;;;;5032775;28;20065;-53
2023/11/10 11:39:32;;;;;;;4.50;0.80;;;9.70;99.90;;;;;;5032734;28;20025;-55
2023/11/10 11:42:03;;;;;;;3.40;0.53;;;9.80;99.90;;;;;;5033092;28;20038;-53
2023/11/10 11:44:34;;;;;;;2.83;0.50;;;9.70;99.90;;;;;;5033215;28;20379;-55
2023/11/10 11:47:10;;;;;;;5.40;0.70;;;9.70;99.90;;;;;;5032758;28;20041;-55
2023/11/10 11:49:37;;;;;;;1.97;0.30;;;9.60;99.90;;;;;;5032711;28;20041;-54
2023/11/10 11:52:05;;;;;;;4.27;0.70;;;9.50;99.90;;;;;;5032942;28;20026;-55
2023/11/10 11:54:30;;;;;;;4.77;1.40;;;9.40;99.90;;;;;;5032710;28;20036;-53
2023/11/10 11:56:57;;;;;;;4.80;0.60;;;9.30;99.90;;;;;;5032588;28;20025;-54
2023/11/10 11:59:24;;;;;;;3.73;0.80;;;9.30;99.90;;;;;;5032324;28;20036;-54
2023/11/10 12:01:50;;;;;;;6.80;1.10;;;9.30;99.90;;;;;;5032495;28;20420;-53
2023/11/10 12:04:16;;;;;;;5.23;0.60;;;9.20;99.90;;;;;;5032475;28;20395;-53
2023/11/10 12:06:42;;;;;;;2.10;0.50;;;9.20;99.90;;;;;;5033229;28;20454;-52
2023/11/10 12:09:08;;;;;;;0.73;0.30;;;9.20;99.90;;;;;;5031611;28;20112;-55
2023/11/10 12:11:35;;;;;;;1.53;0.50;;;9.20;99.90;;;;;;5032173;28;20029;-55
2023/11/10 12:14:05;;;;;;;2.70;0.80;;;9.20;99.90;;;;;;5032280;28;20505;-53
2023/11/10 12:16:32;;;;;;;2.70;0.65;;;9.30;99.90;;;;;;5032403;28;20037;-53
2023/11/10 12:19:00;;;;;;;5.20;0.93;;;9.30;99.90;;;;;;5031842;28;20033;-54
2023/11/10 12:21:27;;;;;;;5.57;0.70;;;9.20;99.90;;;;;;5032115;28;20080;-51
2023/11/10 12:24:03;;;;;;;3.37;0.60;;;9.20;99.90;;;;;;5032445;28;20030;-51
2023/11/10 12:26:37;;;;;;;4.17;0.40;;;9.20;99.90;;;;;;5032118;28;20037;-56
2023/11/10 12:29:08;;;;;;;1.73;0.50;;;9.20;99.90;;;;;;5032228;28;20033;-54
2023/11/10 12:31:34;;;;;;;4.00;0.50;;;9.30;99.90;;;;;;5032282;28;20095;-55
2023/11/10 12:34:01;;;;;;;3.20;0.60;;;9.40;99.90;;;;;;5032023;28;20029;-52
2023/11/10 12:36:31;;;;;;;2.70;0.47;;;9.40;99.90;;;;;;5032628;28;20038;-54
2023/11/10 12:38:57;;;;;;;1.93;0.60;;;9.40;99.90;;;;;;5031850;28;20033;-54
2023/11/10 12:41:23;;;;;;;2.10;0.57;;;9.50;99.90;;;;;;5013932;28;20080;-54
2023/11/10 12:43:49;;;;;;;3.70;0.43;;;9.50;99.90;;;;;;5032120;28;20061;-56
2023/11/10 12:46:14;;;;;;;3.80;0.50;;;9.60;99.90;;;;;;5035552;28;20044;-55
2023/11/10 12:48:41;;;;;;;1.70;0.50;;;9.60;99.90;;;;;;5035627;28;20030;-52
2023/11/10 12:51:09;;;;;;;2.07;0.50;;;9.60;99.90;;;;;;5035774;28;20224;-54
2023/11/10 12:53:35;;;;;;;1.87;0.27;;;9.70;99.90;;;;;;5036500;28;20025;-56